sensor_id;sensor_type;location;lat;lon;timestamp;temperature;humidity
22678;DHT22;26259;50.214;18.620;2022-12-22T00:01:28;2.40;99.90
22678;DHT22;26259;50.214;18.620;2022-12-22T00:04:12;2.30;99.90
22678;DHT22;26259;50.214;18.620;2022-12-22T00:06:56;2.30;99.90
22678;DHT22;26259;50.214;18.620;2022-12-22T00:09:40;2.30;99.90
22678;DHT22;26259;50.214;18.620;2022-12-22T00:12:25;2.30;99.90
22678;DHT22;26259;50.214;18.620;2022-12-22T00:15:16;2.20;99.90
22678;DHT22;26259;50.214;18.620;2022-12-22T00:18:01;2.20;99.90
22678;DHT22;26259;50.214;18.620;2022-12-22T00:20:46;2.30;99.90
22678;DHT22;26259;50.214;18.620;2022-12-22T00:23:30;2.30;99.90
22678;DHT22;26259;50.214;18.620;2022-12-22T00:26:15;2.30;99.90
22678;DHT22;26259;50.214;18.620;2022-12-22T00:29:00;2.20;99.90
22678;DHT22;26259;50.214;18.620;2022-12-22T00:31:44;2.20;99.90
22678;DHT22;26259;50.214;18.620;2022-12-22T00:34:29;2.10;99.90
22678;DHT22;26259;50.214;18.620;2022-12-22T00:37:15;2.00;99.90
22678;DHT22;26259;50.214;18.620;2022-12-22T00:40:00;1.90;99.90
22678;DHT22;26259;50.214;18.620;2022-12-22T00:42:44;1.90;99.90
22678;DHT22;26259;50.214;18.620;2022-12-22T00:45:28;2.00;99.90
22678;DHT22;26259;50.214;18.620;2022-12-22T00:48:24;1.90;99.90
22678;DHT22;26259;50.214;18.620;2022-12-22T00:51:10;1.80;99.90
22678;DHT22;26259;50.214;18.620;2022-12-22T00:53:55;1.80;99.90
22678;DHT22;26259;50.214;18.620;2022-12-22T00:56:39;1.70;99.90
22678;DHT22;26259;50.214;18.620;2022-12-22T00:59:23;1.80;99.90
22678;DHT22;26259;50.214;18.620;2022-12-22T01:02:08;1.70;99.90
22678;DHT22;26259;50.214;18.620;2022-12-22T01:04:52;1.60;99.90
22678;DHT22;26259;50.214;18.620;2022-12-22T01:07:36;1.70;99.90
22678;DHT22;26259;50.214;18.620;2022-12-22T01:10:22;1.80;99.90
22678;DHT22;26259;50.214;18.620;2022-12-22T01:13:10;1.90;99.90
22678;DHT22;26259;50.214;18.620;2022-12-22T01:15:54;2.00;99.90
22678;DHT22;26259;50.214;18.620;2022-12-22T01:18:38;2.00;99.90
22678;DHT22;26259;50.214;18.620;2022-12-22T01:21:22;2.10;99.90
22678;DHT22;26259;50.214;18.620;2022-12-22T01:24:14;2.10;99.90
22678;DHT22;26259;50.214;18.620;2022-12-22T01:26:58;2.20;99.90
22678;DHT22;26259;50.214;18.620;2022-12-22T01:29:42;2.20;99.90
22678;DHT22;26259;50.214;18.620;2022-12-22T01:32:26;2.20;99.90
22678;DHT22;26259;50.214;18.620;2022-12-22T01:35:22;2.30;99.90
22678;DHT22;26259;50.214;18.620;2022-12-22T01:38:07;2.30;99.90
22678;DHT22;26259;50.214;18.620;2022-12-22T01:40:52;2.30;99.90
22678;DHT22;26259;50.214;18.620;2022-12-22T01:43:37;2.30;99.90
22678;DHT22;26259;50.214;18.620;2022-12-22T01:46:26;2.30;99.90
22678;DHT22;26259;50.214;18.620;2022-12-22T01:49:23;2.40;99.90
22678;DHT22;26259;50.214;18.620;2022-12-22T01:52:10;2.40;99.90
22678;DHT22;26259;50.214;18.620;2022-12-22T01:55:03;2.40;99.90
22678;DHT22;26259;50.214;18.620;2022-12-22T01:57:48;2.40;99.90
22678;DHT22;26259;50.214;18.620;2022-12-22T02:00:32;2.50;99.90
22678;DHT22;26259;50.214;18.620;2022-12-22T02:03:17;2.40;99.90
22678;DHT22;26259;50.214;18.620;2022-12-22T02:12:22;2.40;99.90
22678;DHT22;26259;50.214;18.620;2022-12-22T02:16:00;2.40;99.90
22678;DHT22;26259;50.214;18.620;2022-12-22T02:21:38;2.40;99.90
22678;DHT22;26259;50.214;18.620;2022-12-22T02:24:39;2.40;99.90
22678;DHT22;26259;50.214;18.620;2022-12-22T02:27:25;2.40;99.90
22678;DHT22;26259;50.214;18.620;2022-12-22T02:30:10;2.40;99.90
22678;DHT22;26259;50.214;18.620;2022-12-22T02:32:55;2.40;99.90
22678;DHT22;26259;50.214;18.620;2022-12-22T02:44:32;2.20;99.90
22678;DHT22;26259;50.214;18.620;2022-12-22T02:50:26;2.00;99.90
22678;DHT22;26259;50.214;18.620;2022-12-22T02:53:14;2.10;99.90
22678;DHT22;26259;50.214;18.620;2022-12-22T02:56:02;2.10;99.90
22678;DHT22;26259;50.214;18.620;2022-12-22T02:58:47;2.20;99.90
22678;DHT22;26259;50.214;18.620;2022-12-22T03:01:31;2.30;99.90
22678;DHT22;26259;50.214;18.620;2022-12-22T03:04:15;2.30;99.90
22678;DHT22;26259;50.214;18.620;2022-12-22T03:06:59;2.30;99.90
22678;DHT22;26259;50.214;18.620;2022-12-22T03:09:43;2.30;99.90
22678;DHT22;26259;50.214;18.620;2022-12-22T03:12:27;2.30;99.90
22678;DHT22;26259;50.214;18.620;2022-12-22T03:15:11;2.40;99.90
22678;DHT22;26259;50.214;18.620;2022-12-22T03:18:03;2.40;99.90
22678;DHT22;26259;50.214;18.620;2022-12-22T03:20:48;2.40;99.90
22678;DHT22;26259;50.214;18.620;2022-12-22T03:23:32;2.40;99.90
22678;DHT22;26259;50.214;18.620;2022-12-22T03:26:16;2.30;99.90
22678;DHT22;26259;50.214;18.620;2022-12-22T03:28:42;2.30;99.90
22678;DHT22;26259;50.214;18.620;2022-12-22T03:31:07;2.20;99.90
22678;DHT22;26259;50.214;18.620;2022-12-22T03:33:33;2.20;99.90
22678;DHT22;26259;50.214;18.620;2022-12-22T03:35:59;2.20;99.90
22678;DHT22;26259;50.214;18.620;2022-12-22T03:38:26;2.30;99.90
22678;DHT22;26259;50.214;18.620;2022-12-22T03:40:52;2.30;99.90
22678;DHT22;26259;50.214;18.620;2022-12-22T03:43:18;2.30;99.90
22678;DHT22;26259;50.214;18.620;2022-12-22T03:46:12;2.20;99.90
22678;DHT22;26259;50.214;18.620;2022-12-22T03:49:01;2.20;99.90
22678;DHT22;26259;50.214;18.620;2022-12-22T03:51:48;2.20;99.90
22678;DHT22;26259;50.214;18.620;2022-12-22T03:54:19;2.10;99.90
22678;DHT22;26259;50.214;18.620;2022-12-22T03:56:46;2.10;99.90
22678;DHT22;26259;50.214;18.620;2022-12-22T03:59:12;2.20;99.90
22678;DHT22;26259;50.214;18.620;2022-12-22T04:01:41;2.20;99.90
22678;DHT22;26259;50.214;18.620;2022-12-22T04:04:07;2.20;99.90
22678;DHT22;26259;50.214;18.620;2022-12-22T04:06:33;2.30;99.90
22678;DHT22;26259;50.214;18.620;2022-12-22T04:08:58;2.30;99.90
22678;DHT22;26259;50.214;18.620;2022-12-22T04:11:24;2.30;99.90
22678;DHT22;26259;50.214;18.620;2022-12-22T04:14:08;2.40;99.90
22678;DHT22;26259;50.214;18.620;2022-12-22T04:16:34;2.40;99.90
22678;DHT22;26259;50.214;18.620;2022-12-22T04:18:59;2.40;99.90
22678;DHT22;26259;50.214;18.620;2022-12-22T04:21:25;2.40;99.90
22678;DHT22;26259;50.214;18.620;2022-12-22T04:23:51;2.40;99.90
22678;DHT22;26259;50.214;18.620;2022-12-22T04:26:24;2.40;99.90
22678;DHT22;26259;50.214;18.620;2022-12-22T04:28:51;2.30;99.90
22678;DHT22;26259;50.214;18.620;2022-12-22T04:31:17;2.30;99.90
22678;DHT22;26259;50.214;18.620;2022-12-22T04:33:43;2.20;99.90
22678;DHT22;26259;50.214;18.620;2022-12-22T04:36:09;2.20;99.90
22678;DHT22;26259;50.214;18.620;2022-12-22T04:38:35;2.30;99.90
22678;DHT22;26259;50.214;18.620;2022-12-22T04:41:00;2.20;99.90
22678;DHT22;26259;50.214;18.620;2022-12-22T04:43:26;2.20;99.90
22678;DHT22;26259;50.214;18.620;2022-12-22T04:45:55;2.20;99.90
22678;DHT22;26259;50.214;18.620;2022-12-22T04:48:22;2.30;99.90
22678;DHT22;26259;50.214;18.620;2022-12-22T04:50:55;2.30;99.90
22678;DHT22;26259;50.214;18.620;2022-12-22T04:53:22;2.30;99.90
22678;DHT22;26259;50.214;18.620;2022-12-22T04:55:55;2.30;99.90
22678;DHT22;26259;50.214;18.620;2022-12-22T04:58:22;2.30;99.90
22678;DHT22;26259;50.214;18.620;2022-12-22T05:00:47;2.30;99.90
22678;DHT22;26259;50.214;18.620;2022-12-22T05:03:13;2.30;99.90
22678;DHT22;26259;50.214;18.620;2022-12-22T05:05:38;2.30;99.90
22678;DHT22;26259;50.214;18.620;2022-12-22T05:08:04;2.30;99.90
22678;DHT22;26259;50.214;18.620;2022-12-22T05:10:30;2.40;99.90
22678;DHT22;26259;50.214;18.620;2022-12-22T05:12:56;2.40;99.90
22678;DHT22;26259;50.214;18.620;2022-12-22T05:17:49;2.40;99.90
22678;DHT22;26259;50.214;18.620;2022-12-22T05:20:15;2.30;99.90
22678;DHT22;26259;50.214;18.620;2022-12-22T05:22:40;2.30;99.90
22678;DHT22;26259;50.214;18.620;2022-12-22T05:25:06;2.20;99.90
22678;DHT22;26259;50.214;18.620;2022-12-22T05:27:32;2.20;99.90
22678;DHT22;26259;50.214;18.620;2022-12-22T05:29:57;2.10;99.90
22678;DHT22;26259;50.214;18.620;2022-12-22T05:32:23;2.20;99.90
22678;DHT22;26259;50.214;18.620;2022-12-22T05:34:48;2.20;99.90
22678;DHT22;26259;50.214;18.620;2022-12-22T05:37:14;2.40;99.90
22678;DHT22;26259;50.214;18.620;2022-12-22T05:39:40;2.50;99.90
22678;DHT22;26259;50.214;18.620;2022-12-22T05:42:05;2.50;99.90
22678;DHT22;26259;50.214;18.620;2022-12-22T05:44:31;2.60;99.90
22678;DHT22;26259;50.214;18.620;2022-12-22T05:46:56;2.70;99.90
22678;DHT22;26259;50.214;18.620;2022-12-22T05:49:22;2.70;99.90
22678;DHT22;26259;50.214;18.620;2022-12-22T05:51:47;2.70;99.90
22678;DHT22;26259;50.214;18.620;2022-12-22T05:54:14;2.70;99.90
22678;DHT22;26259;50.214;18.620;2022-12-22T05:56:39;2.80;99.90
22678;DHT22;26259;50.214;18.620;2022-12-22T05:59:05;2.80;99.90
22678;DHT22;26259;50.214;18.620;2022-12-22T06:01:30;2.80;99.90
22678;DHT22;26259;50.214;18.620;2022-12-22T06:03:56;2.80;99.90
22678;DHT22;26259;50.214;18.620;2022-12-22T06:06:22;2.80;99.90
22678;DHT22;26259;50.214;18.620;2022-12-22T06:08:47;2.80;99.90
22678;DHT22;26259;50.214;18.620;2022-12-22T06:11:13;2.80;99.90
22678;DHT22;26259;50.214;18.620;2022-12-22T06:13:43;2.90;99.90
22678;DHT22;26259;50.214;18.620;2022-12-22T06:16:08;2.90;99.90
22678;DHT22;26259;50.214;18.620;2022-12-22T06:18:34;2.90;99.90
22678;DHT22;26259;50.214;18.620;2022-12-22T06:21:00;2.90;99.90
22678;DHT22;26259;50.214;18.620;2022-12-22T06:23:25;2.90;99.90
22678;DHT22;26259;50.214;18.620;2022-12-22T06:25:59;2.90;99.90
22678;DHT22;26259;50.214;18.620;2022-12-22T06:28:25;2.90;99.90
22678;DHT22;26259;50.214;18.620;2022-12-22T06:30:51;2.90;99.90
22678;DHT22;26259;50.214;18.620;2022-12-22T06:33:17;2.90;99.90
22678;DHT22;26259;50.214;18.620;2022-12-22T06:35:43;2.90;99.90
22678;DHT22;26259;50.214;18.620;2022-12-22T06:38:08;2.90;99.90
22678;DHT22;26259;50.214;18.620;2022-12-22T06:40:34;2.80;99.90
22678;DHT22;26259;50.214;18.620;2022-12-22T06:42:59;2.90;99.90
22678;DHT22;26259;50.214;18.620;2022-12-22T06:45:39;2.80;99.90
22678;DHT22;26259;50.214;18.620;2022-12-22T06:48:06;2.90;99.90
22678;DHT22;26259;50.214;18.620;2022-12-22T06:50:32;2.90;99.90
22678;DHT22;26259;50.214;18.620;2022-12-22T06:52:58;2.90;99.90
22678;DHT22;26259;50.214;18.620;2022-12-22T06:55:24;2.90;99.90
22678;DHT22;26259;50.214;18.620;2022-12-22T06:57:49;2.90;99.90
22678;DHT22;26259;50.214;18.620;2022-12-22T07:00:15;2.90;99.90
22678;DHT22;26259;50.214;18.620;2022-12-22T07:02:41;2.80;99.90
22678;DHT22;26259;50.214;18.620;2022-12-22T07:05:07;2.80;99.90
22678;DHT22;26259;50.214;18.620;2022-12-22T07:07:32;2.80;99.90
22678;DHT22;26259;50.214;18.620;2022-12-22T07:09:58;2.80;99.90
22678;DHT22;26259;50.214;18.620;2022-12-22T07:12:24;2.80;99.90
22678;DHT22;26259;50.214;18.620;2022-12-22T07:14:49;2.80;99.90
22678;DHT22;26259;50.214;18.620;2022-12-22T07:17:15;2.80;99.90
22678;DHT22;26259;50.214;18.620;2022-12-22T07:19:40;2.80;99.90
22678;DHT22;26259;50.214;18.620;2022-12-22T07:22:06;2.90;99.90
22678;DHT22;26259;50.214;18.620;2022-12-22T07:24:31;2.80;99.90
22678;DHT22;26259;50.214;18.620;2022-12-22T07:26:58;2.80;99.90
22678;DHT22;26259;50.214;18.620;2022-12-22T07:29:24;2.80;99.90
22678;DHT22;26259;50.214;18.620;2022-12-22T07:31:49;2.90;99.90
22678;DHT22;26259;50.214;18.620;2022-12-22T07:34:15;2.90;99.90
22678;DHT22;26259;50.214;18.620;2022-12-22T07:36:41;3.00;99.90
22678;DHT22;26259;50.214;18.620;2022-12-22T07:39:06;3.10;99.90
22678;DHT22;26259;50.214;18.620;2022-12-22T07:41:32;3.20;99.90
22678;DHT22;26259;50.214;18.620;2022-12-22T07:44:16;3.20;99.90
22678;DHT22;26259;50.214;18.620;2022-12-22T07:46:42;3.30;99.90
22678;DHT22;26259;50.214;18.620;2022-12-22T07:49:10;3.40;99.90
22678;DHT22;26259;50.214;18.620;2022-12-22T07:51:57;3.50;99.90
22678;DHT22;26259;50.214;18.620;2022-12-22T07:54:24;3.50;99.90
22678;DHT22;26259;50.214;18.620;2022-12-22T07:56:50;3.70;99.90
22678;DHT22;26259;50.214;18.620;2022-12-22T07:59:15;3.80;99.90
22678;DHT22;26259;50.214;18.620;2022-12-22T08:01:41;3.90;99.90
22678;DHT22;26259;50.214;18.620;2022-12-22T08:04:08;4.00;99.90
22678;DHT22;26259;50.214;18.620;2022-12-22T08:06:34;4.10;99.90
22678;DHT22;26259;50.214;18.620;2022-12-22T08:09:01;4.10;99.90
22678;DHT22;26259;50.214;18.620;2022-12-22T08:11:26;4.10;99.90
22678;DHT22;26259;50.214;18.620;2022-12-22T08:13:52;4.10;99.90
22678;DHT22;26259;50.214;18.620;2022-12-22T08:16:18;4.30;99.90
22678;DHT22;26259;50.214;18.620;2022-12-22T08:18:44;4.40;99.90
22678;DHT22;26259;50.214;18.620;2022-12-22T08:21:10;4.40;99.90
22678;DHT22;26259;50.214;18.620;2022-12-22T08:23:36;4.60;99.90
22678;DHT22;26259;50.214;18.620;2022-12-22T08:26:14;4.70;99.90
22678;DHT22;26259;50.214;18.620;2022-12-22T08:28:49;4.80;99.90
22678;DHT22;26259;50.214;18.620;2022-12-22T08:31:18;4.90;99.90
22678;DHT22;26259;50.214;18.620;2022-12-22T08:33:44;5.00;99.90
22678;DHT22;26259;50.214;18.620;2022-12-22T08:36:11;5.10;99.90
22678;DHT22;26259;50.214;18.620;2022-12-22T08:38:38;5.10;99.90
22678;DHT22;26259;50.214;18.620;2022-12-22T08:41:10;5.20;99.90
22678;DHT22;26259;50.214;18.620;2022-12-22T08:43:37;5.20;99.90
22678;DHT22;26259;50.214;18.620;2022-12-22T08:46:03;5.20;99.90
22678;DHT22;26259;50.214;18.620;2022-12-22T08:48:29;5.10;99.90
22678;DHT22;26259;50.214;18.620;2022-12-22T08:50:54;5.10;99.90
22678;DHT22;26259;50.214;18.620;2022-12-22T08:53:20;5.10;99.90
22678;DHT22;26259;50.214;18.620;2022-12-22T08:55:55;5.10;99.90
22678;DHT22;26259;50.214;18.620;2022-12-22T08:58:21;5.20;99.90
22678;DHT22;26259;50.214;18.620;2022-12-22T09:00:47;5.20;99.90
22678;DHT22;26259;50.214;18.620;2022-12-22T09:03:13;5.30;99.90
22678;DHT22;26259;50.214;18.620;2022-12-22T09:05:39;5.40;99.90
22678;DHT22;26259;50.214;18.620;2022-12-22T09:08:06;5.40;99.90
22678;DHT22;26259;50.214;18.620;2022-12-22T09:10:32;5.50;99.90
22678;DHT22;26259;50.214;18.620;2022-12-22T09:12:58;5.70;99.90
22678;DHT22;26259;50.214;18.620;2022-12-22T09:15:23;5.80;99.90
22678;DHT22;26259;50.214;18.620;2022-12-22T09:17:49;5.90;99.90
22678;DHT22;26259;50.214;18.620;2022-12-22T09:20:15;5.80;99.90
22678;DHT22;26259;50.214;18.620;2022-12-22T09:22:40;5.90;99.90
22678;DHT22;26259;50.214;18.620;2022-12-22T09:25:06;5.90;99.90
22678;DHT22;26259;50.214;18.620;2022-12-22T09:27:32;6.00;99.90
22678;DHT22;26259;50.214;18.620;2022-12-22T09:29:57;6.00;99.90
22678;DHT22;26259;50.214;18.620;2022-12-22T09:32:23;6.00;99.90
22678;DHT22;26259;50.214;18.620;2022-12-22T09:34:48;6.00;99.90
22678;DHT22;26259;50.214;18.620;2022-12-22T09:37:15;6.00;99.90
22678;DHT22;26259;50.214;18.620;2022-12-22T09:39:41;6.10;99.90
22678;DHT22;26259;50.214;18.620;2022-12-22T09:42:14;6.00;99.90
22678;DHT22;26259;50.214;18.620;2022-12-22T09:44:43;6.00;99.90
22678;DHT22;26259;50.214;18.620;2022-12-22T09:50:01;5.80;99.90
22678;DHT22;26259;50.214;18.620;2022-12-22T09:54:59;5.60;99.90
22678;DHT22;26259;50.214;18.620;2022-12-22T09:57:29;5.40;99.90
22678;DHT22;26259;50.214;18.620;2022-12-22T10:00:15;5.30;99.90
22678;DHT22;26259;50.214;18.620;2022-12-22T10:08:01;5.40;99.90
22678;DHT22;26259;50.214;18.620;2022-12-22T10:10:33;5.50;99.90
22678;DHT22;26259;50.214;18.620;2022-12-22T10:13:01;5.70;99.90
22678;DHT22;26259;50.214;18.620;2022-12-22T10:15:39;5.80;99.90
22678;DHT22;26259;50.214;18.620;2022-12-22T10:18:14;5.90;99.90
22678;DHT22;26259;50.214;18.620;2022-12-22T10:20:42;6.00;99.90
22678;DHT22;26259;50.214;18.620;2022-12-22T10:23:36;6.00;99.90
22678;DHT22;26259;50.214;18.620;2022-12-22T10:26:27;6.00;99.90
22678;DHT22;26259;50.214;18.620;2022-12-22T10:29:14;6.10;99.90
22678;DHT22;26259;50.214;18.620;2022-12-22T10:34:26;6.30;99.90
22678;DHT22;26259;50.214;18.620;2022-12-22T10:36:59;6.40;99.90
22678;DHT22;26259;50.214;18.620;2022-12-22T10:39:27;6.50;99.90
22678;DHT22;26259;50.214;18.620;2022-12-22T10:41:59;6.40;99.90
22678;DHT22;26259;50.214;18.620;2022-12-22T10:44:29;6.40;99.90
22678;DHT22;26259;50.214;18.620;2022-12-22T10:47:00;6.30;99.90
22678;DHT22;26259;50.214;18.620;2022-12-22T10:49:37;6.40;99.90
22678;DHT22;26259;50.214;18.620;2022-12-22T10:52:22;6.40;99.90
22678;DHT22;26259;50.214;18.620;2022-12-22T10:54:49;6.40;99.90
22678;DHT22;26259;50.214;18.620;2022-12-22T11:00:26;6.60;99.90
22678;DHT22;26259;50.214;18.620;2022-12-22T11:02:53;6.60;99.90
22678;DHT22;26259;50.214;18.620;2022-12-22T11:05:19;6.60;99.90
22678;DHT22;26259;50.214;18.620;2022-12-22T11:07:46;6.70;99.90
22678;DHT22;26259;50.214;18.620;2022-12-22T11:15:50;6.80;99.90
22678;DHT22;26259;50.214;18.620;2022-12-22T11:51:31;6.40;99.90
22678;DHT22;26259;50.214;18.620;2022-12-22T11:56:55;6.40;99.90
22678;DHT22;26259;50.214;18.620;2022-12-22T12:10:47;5.80;99.90
22678;DHT22;26259;50.214;18.620;2022-12-22T12:13:21;5.70;99.90
22678;DHT22;26259;50.214;18.620;2022-12-22T12:16:11;5.70;99.90
22678;DHT22;26259;50.214;18.620;2022-12-22T12:21:56;5.60;99.90
22678;DHT22;26259;50.214;18.620;2022-12-22T12:24:44;5.50;99.90
22678;DHT22;26259;50.214;18.620;2022-12-22T12:30:15;5.50;99.90
22678;DHT22;26259;50.214;18.620;2022-12-22T12:32:47;5.40;99.90
22678;DHT22;26259;50.214;18.620;2022-12-22T12:35:30;5.40;99.90
22678;DHT22;26259;50.214;18.620;2022-12-22T12:38:06;5.50;99.90
22678;DHT22;26259;50.214;18.620;2022-12-22T12:40:51;5.50;99.90
22678;DHT22;26259;50.214;18.620;2022-12-22T12:43:19;5.60;99.90
22678;DHT22;26259;50.214;18.620;2022-12-22T12:45:47;5.70;99.90
22678;DHT22;26259;50.214;18.620;2022-12-22T12:50:46;5.70;99.90
22678;DHT22;26259;50.214;18.620;2022-12-22T12:53:12;5.70;99.90
22678;DHT22;26259;50.214;18.620;2022-12-22T12:58:08;5.60;99.90
22678;DHT22;26259;50.214;18.620;2022-12-22T13:03:06;5.50;99.90
22678;DHT22;26259;50.214;18.620;2022-12-22T13:05:52;5.40;99.90
22678;DHT22;26259;50.214;18.620;2022-12-22T13:21:17;5.30;99.90
22678;DHT22;26259;50.214;18.620;2022-12-22T13:26:34;5.30;99.90
22678;DHT22;26259;50.214;18.620;2022-12-22T13:32:00;5.20;99.90
22678;DHT22;26259;50.214;18.620;2022-12-22T13:34:37;5.10;99.90
22678;DHT22;26259;50.214;18.620;2022-12-22T13:37:24;5.10;99.90
22678;DHT22;26259;50.214;18.620;2022-12-22T13:40:07;5.10;99.90
22678;DHT22;26259;50.214;18.620;2022-12-22T13:45:48;5.00;99.90
22678;DHT22;26259;50.214;18.620;2022-12-22T13:50:48;4.90;99.90
22678;DHT22;26259;50.214;18.620;2022-12-22T13:53:29;4.90;99.90
22678;DHT22;26259;50.214;18.620;2022-12-22T13:55:55;4.90;99.90
22678;DHT22;26259;50.214;18.620;2022-12-22T13:58:30;4.90;99.90
22678;DHT22;26259;50.214;18.620;2022-12-22T14:03:35;4.80;99.90
22678;DHT22;26259;50.214;18.620;2022-12-22T14:06:01;4.80;99.90
22678;DHT22;26259;50.214;18.620;2022-12-22T14:08:27;4.80;99.90
22678;DHT22;26259;50.214;18.620;2022-12-22T14:10:54;4.80;99.90
22678;DHT22;26259;50.214;18.620;2022-12-22T14:13:23;4.70;99.90
22678;DHT22;26259;50.214;18.620;2022-12-22T14:16:01;4.70;99.90
22678;DHT22;26259;50.214;18.620;2022-12-22T14:18:27;4.70;99.90
22678;DHT22;26259;50.214;18.620;2022-12-22T14:20:54;4.80;99.90
22678;DHT22;26259;50.214;18.620;2022-12-22T14:23:23;4.70;99.90
22678;DHT22;26259;50.214;18.620;2022-12-22T14:25:51;4.80;99.90
22678;DHT22;26259;50.214;18.620;2022-12-22T14:28:25;4.80;99.90
22678;DHT22;26259;50.214;18.620;2022-12-22T14:30:53;4.80;99.90
22678;DHT22;26259;50.214;18.620;2022-12-22T14:36:02;4.80;99.90
22678;DHT22;26259;50.214;18.620;2022-12-22T14:38:28;4.80;99.90
22678;DHT22;26259;50.214;18.620;2022-12-22T14:40:53;4.80;99.90
22678;DHT22;26259;50.214;18.620;2022-12-22T14:45:47;4.90;99.90
22678;DHT22;26259;50.214;18.620;2022-12-22T14:48:32;4.80;99.90
22678;DHT22;26259;50.214;18.620;2022-12-22T14:51:00;4.80;99.90
22678;DHT22;26259;50.214;18.620;2022-12-22T14:56:03;4.70;99.90
22678;DHT22;26259;50.214;18.620;2022-12-22T14:58:38;4.70;99.90
22678;DHT22;26259;50.214;18.620;2022-12-22T15:01:25;4.70;99.90
22678;DHT22;26259;50.214;18.620;2022-12-22T15:04:16;4.70;99.90
22678;DHT22;26259;50.214;18.620;2022-12-22T15:06:44;4.70;99.90
22678;DHT22;26259;50.214;18.620;2022-12-22T15:11:50;4.70;99.90
22678;DHT22;26259;50.214;18.620;2022-12-22T15:14:20;4.60;99.90
22678;DHT22;26259;50.214;18.620;2022-12-22T15:16:46;4.60;99.90
22678;DHT22;26259;50.214;18.620;2022-12-22T15:19:17;4.60;99.90
22678;DHT22;26259;50.214;18.620;2022-12-22T15:21:43;4.60;99.90
22678;DHT22;26259;50.214;18.620;2022-12-22T15:24:14;4.70;99.90
22678;DHT22;26259;50.214;18.620;2022-12-22T15:26:41;4.70;99.90
22678;DHT22;26259;50.214;18.620;2022-12-22T15:29:07;4.70;99.90
22678;DHT22;26259;50.214;18.620;2022-12-22T15:31:33;4.70;99.90
22678;DHT22;26259;50.214;18.620;2022-12-22T15:34:01;4.80;99.90
22678;DHT22;26259;50.214;18.620;2022-12-22T15:36:27;4.90;99.90
22678;DHT22;26259;50.214;18.620;2022-12-22T15:38:53;4.90;99.90
22678;DHT22;26259;50.214;18.620;2022-12-22T15:41:19;5.00;99.90
22678;DHT22;26259;50.214;18.620;2022-12-22T15:43:44;5.00;99.90
22678;DHT22;26259;50.214;18.620;2022-12-22T15:46:13;5.10;99.90
22678;DHT22;26259;50.214;18.620;2022-12-22T15:48:40;5.10;99.90
22678;DHT22;26259;50.214;18.620;2022-12-22T15:51:22;5.10;99.90
22678;DHT22;26259;50.214;18.620;2022-12-22T15:53:49;5.10;99.90
22678;DHT22;26259;50.214;18.620;2022-12-22T15:56:20;5.20;99.90
22678;DHT22;26259;50.214;18.620;2022-12-22T15:58:46;5.10;99.90
22678;DHT22;26259;50.214;18.620;2022-12-22T16:01:12;5.20;99.90
22678;DHT22;26259;50.214;18.620;2022-12-22T16:03:38;5.20;99.90
22678;DHT22;26259;50.214;18.620;2022-12-22T16:06:04;5.20;99.90
22678;DHT22;26259;50.214;18.620;2022-12-22T16:08:36;5.20;99.90
22678;DHT22;26259;50.214;18.620;2022-12-22T16:11:02;5.20;99.90
22678;DHT22;26259;50.214;18.620;2022-12-22T16:13:28;5.10;99.90
22678;DHT22;26259;50.214;18.620;2022-12-22T16:15:55;5.10;99.90
22678;DHT22;26259;50.214;18.620;2022-12-22T16:18:21;5.10;99.90
22678;DHT22;26259;50.214;18.620;2022-12-22T16:20:47;5.10;99.90
22678;DHT22;26259;50.214;18.620;2022-12-22T16:23:19;5.10;99.90
22678;DHT22;26259;50.214;18.620;2022-12-22T16:25:46;5.00;99.90
22678;DHT22;26259;50.214;18.620;2022-12-22T16:28:16;5.00;99.90
22678;DHT22;26259;50.214;18.620;2022-12-22T16:30:42;4.90;99.90
22678;DHT22;26259;50.214;18.620;2022-12-22T16:33:10;4.90;99.90
22678;DHT22;26259;50.214;18.620;2022-12-22T16:35:37;4.90;99.90
22678;DHT22;26259;50.214;18.620;2022-12-22T16:38:03;5.00;99.90
22678;DHT22;26259;50.214;18.620;2022-12-22T16:40:30;4.90;99.90
22678;DHT22;26259;50.214;18.620;2022-12-22T16:43:02;4.90;99.90
22678;DHT22;26259;50.214;18.620;2022-12-22T16:45:31;5.00;99.90
22678;DHT22;26259;50.214;18.620;2022-12-22T16:48:03;4.90;99.90
22678;DHT22;26259;50.214;18.620;2022-12-22T16:50:29;4.90;99.90
22678;DHT22;26259;50.214;18.620;2022-12-22T16:52:59;4.80;99.90
22678;DHT22;26259;50.214;18.620;2022-12-22T16:55:25;4.80;99.90
22678;DHT22;26259;50.214;18.620;2022-12-22T16:57:51;4.90;99.90
22678;DHT22;26259;50.214;18.620;2022-12-22T17:00:19;4.90;99.90
22678;DHT22;26259;50.214;18.620;2022-12-22T17:02:49;4.90;99.90
22678;DHT22;26259;50.214;18.620;2022-12-22T17:05:34;4.90;99.90
22678;DHT22;26259;50.214;18.620;2022-12-22T17:08:02;4.90;99.90
22678;DHT22;26259;50.214;18.620;2022-12-22T17:10:29;4.90;99.90
22678;DHT22;26259;50.214;18.620;2022-12-22T17:12:55;4.90;99.90
22678;DHT22;26259;50.214;18.620;2022-12-22T17:15:21;4.90;99.90
22678;DHT22;26259;50.214;18.620;2022-12-22T17:17:47;4.90;99.90
22678;DHT22;26259;50.214;18.620;2022-12-22T17:20:14;4.90;99.90
22678;DHT22;26259;50.214;18.620;2022-12-22T17:22:43;4.80;99.90
22678;DHT22;26259;50.214;18.620;2022-12-22T17:25:16;4.80;99.90
22678;DHT22;26259;50.214;18.620;2022-12-22T17:27:43;4.80;99.90
22678;DHT22;26259;50.214;18.620;2022-12-22T17:30:18;4.70;99.90
22678;DHT22;26259;50.214;18.620;2022-12-22T17:32:44;4.70;99.90
22678;DHT22;26259;50.214;18.620;2022-12-22T17:35:15;4.60;99.90
22678;DHT22;26259;50.214;18.620;2022-12-22T17:37:43;4.50;99.90
22678;DHT22;26259;50.214;18.620;2022-12-22T17:40:22;4.40;99.90
22678;DHT22;26259;50.214;18.620;2022-12-22T17:42:48;4.40;99.90
22678;DHT22;26259;50.214;18.620;2022-12-22T17:45:15;4.30;99.90
22678;DHT22;26259;50.214;18.620;2022-12-22T17:47:41;4.30;99.90
22678;DHT22;26259;50.214;18.620;2022-12-22T17:50:11;4.40;99.90
22678;DHT22;26259;50.214;18.620;2022-12-22T17:52:36;4.40;99.90
22678;DHT22;26259;50.214;18.620;2022-12-22T17:55:03;4.50;99.90
22678;DHT22;26259;50.214;18.620;2022-12-22T17:57:32;4.50;99.90
22678;DHT22;26259;50.214;18.620;2022-12-22T17:59:57;4.60;99.90
22678;DHT22;26259;50.214;18.620;2022-12-22T18:02:23;4.70;99.90
22678;DHT22;26259;50.214;18.620;2022-12-22T18:04:50;4.70;99.90
22678;DHT22;26259;50.214;18.620;2022-12-22T18:07:22;4.70;99.90
22678;DHT22;26259;50.214;18.620;2022-12-22T18:09:49;4.80;99.90
22678;DHT22;26259;50.214;18.620;2022-12-22T18:14:43;4.70;99.90
22678;DHT22;26259;50.214;18.620;2022-12-22T18:17:29;4.80;99.90
22678;DHT22;26259;50.214;18.620;2022-12-22T18:19:55;4.80;99.90
22678;DHT22;26259;50.214;18.620;2022-12-22T18:22:23;4.80;99.90
22678;DHT22;26259;50.214;18.620;2022-12-22T18:24:51;4.80;99.90
22678;DHT22;26259;50.214;18.620;2022-12-22T18:27:18;4.90;99.90